CYP470 LCLK-OJAI
Flight info
| Callsign | CYP470 |
|---|---|
| Flight time | 0h 42m |
| Altitude | 31000 |
| Route | EMEDA DCT TUZIB L189 ZUKKO L609 VOLFO N134 RALNA |
| Aircraft | A320/M-SDE3FGHIRWY/LB1 |
Departure
| Time | 2026-05-07 05:58 |
|---|---|
| Airport | Larnaca International Airport (LCLK) |
Arrival
| Time | 2026-05-07 06:40 |
|---|---|
| Airport | Queen Alia International Airport (OJAI) |
| Time | Latitude | Longitude | Altitude | Speed | Heading |
|---|---|---|---|---|---|
| 2026-05-07 05:34 | 34.86748 | 33.60692 | 21 ft | 0 kts | 225° |
| 2026-05-07 05:45 | 34.86753 | 33.60699 | 20 ft | 3 kts | 225° |
| 2026-05-07 05:45 | 34.86768 | 33.60718 | 20 ft | 3 kts | 225° |
| 2026-05-07 05:46 | 34.86783 | 33.60736 | 20 ft | 3 kts | 218° |
| 2026-05-07 05:46 | 34.86802 | 33.60748 | 20 ft | 3 kts | 180° |
| 2026-05-07 05:46 | 34.86823 | 33.60743 | 20 ft | 3 kts | 148° |
| 2026-05-07 05:46 | 34.86836 | 33.60731 | 21 ft | 0 kts | 136° |
| 2026-05-07 05:47 | 34.86826 | 33.60743 | 20 ft | 3 kts | 136° |
| 2026-05-07 05:47 | 34.86810 | 33.60762 | 21 ft | 3 kts | 136° |
| 2026-05-07 05:47 | 34.86806 | 33.60767 | 20 ft | 0 kts | 136° |
| 2026-05-07 05:48 | 34.86793 | 33.60783 | 21 ft | 4 kts | 135° |
| 2026-05-07 05:48 | 34.86775 | 33.60804 | 20 ft | 5 kts | 135° |
| 2026-05-07 05:49 | 34.86739 | 33.60847 | 22 ft | 7 kts | 135° |
| 2026-05-07 05:49 | 34.86705 | 33.60888 | 20 ft | 6 kts | 135° |
| 2026-05-07 05:49 | 34.86672 | 33.60929 | 22 ft | 7 kts | 135° |
| 2026-05-07 05:49 | 34.86645 | 33.60970 | 22 ft | 6 kts | 112° |
| 2026-05-07 05:50 | 34.86670 | 33.61032 | 21 ft | 10 kts | 45° |
| 2026-05-07 05:50 | 34.86717 | 33.61088 | 21 ft | 10 kts | 45° |
| 2026-05-07 05:50 | 34.86787 | 33.61173 | 20 ft | 16 kts | 45° |
| 2026-05-07 05:50 | 34.86874 | 33.61280 | 18 ft | 19 kts | 45° |
| 2026-05-07 05:51 | 34.86970 | 33.61398 | 18 ft | 21 kts | 44° |
| 2026-05-07 05:51 | 34.87076 | 33.61527 | 18 ft | 22 kts | 45° |
| 2026-05-07 05:51 | 34.87185 | 33.61658 | 20 ft | 23 kts | 44° |
| 2026-05-07 05:51 | 34.87300 | 33.61798 | 18 ft | 24 kts | 45° |
| 2026-05-07 05:52 | 34.87407 | 33.61930 | 18 ft | 18 kts | 45° |
| 2026-05-07 05:52 | 34.87470 | 33.62006 | 17 ft | 11 kts | 45° |
| 2026-05-07 05:52 | 34.87517 | 33.62072 | 17 ft | 9 kts | 63° |
| 2026-05-07 05:52 | 34.87509 | 33.62136 | 17 ft | 8 kts | 107° |
| 2026-05-07 05:53 | 34.87515 | 33.62198 | 19 ft | 9 kts | 58° |
| 2026-05-07 05:53 | 34.87582 | 33.62285 | 17 ft | 18 kts | 45° |
| 2026-05-07 05:53 | 34.87671 | 33.62392 | 18 ft | 18 kts | 44° |
| 2026-05-07 05:53 | 34.87764 | 33.62502 | 18 ft | 20 kts | 44° |
| 2026-05-07 05:54 | 34.87864 | 33.62620 | 20 ft | 20 kts | 45° |
| 2026-05-07 05:54 | 34.87966 | 33.62743 | 21 ft | 22 kts | 44° |
| 2026-05-07 05:54 | 34.88080 | 33.62880 | 21 ft | 23 kts | 45° |
| 2026-05-07 05:54 | 34.88194 | 33.63027 | 18 ft | 26 kts | 47° |
| 2026-05-07 05:55 | 34.88282 | 33.63138 | 19 ft | 16 kts | 45° |
| 2026-05-07 05:55 | 34.88354 | 33.63226 | 18 ft | 8 kts | 45° |
| 2026-05-07 05:55 | 34.88392 | 33.63272 | 16 ft | 7 kts | 45° |
| 2026-05-07 05:55 | 34.88424 | 33.63311 | 17 ft | 6 kts | 45° |
| 2026-05-07 05:56 | 34.88446 | 33.63349 | 20 ft | 4 kts | 73° |
| 2026-05-07 05:56 | 34.88432 | 33.63391 | 19 ft | 6 kts | 124° |
| 2026-05-07 05:56 | 34.88410 | 33.63423 | 21 ft | 4 kts | 130° |
| 2026-05-07 05:56 | 34.88396 | 33.63444 | 19 ft | 3 kts | 130° |
| 2026-05-07 05:57 | 34.88383 | 33.63463 | 21 ft | 3 kts | 131° |
| 2026-05-07 05:57 | 34.88350 | 33.63505 | 19 ft | 8 kts | 135° |
| 2026-05-07 05:57 | 34.88302 | 33.63522 | 18 ft | 8 kts | 196° |
| 2026-05-07 05:57 | 34.88262 | 33.63477 | 16 ft | 8 kts | 226° |
| 2026-05-07 05:58 | 34.88164 | 33.63358 | 18 ft | 50 kts | 225° |
| 2026-05-07 05:58 | 34.87751 | 33.62854 | 24 ft | 115 kts | 225° |
| 2026-05-07 05:58 | 34.87057 | 33.62008 | 37 ft | 164 kts | 225° |
| 2026-05-07 05:58 | 34.86255 | 33.61038 | 653 ft | 160 kts | 224° |
| 2026-05-07 05:59 | 34.85466 | 33.60079 | 1300 ft | 161 kts | 225° |
| 2026-05-07 05:59 | 34.84667 | 33.59110 | 1871 ft | 168 kts | 225° |
| 2026-05-07 05:59 | 34.83798 | 33.58048 | 2235 ft | 185 kts | 225° |
| 2026-05-07 05:59 | 34.82844 | 33.56878 | 2584 ft | 205 kts | 226° |
| 2026-05-07 06:00 | 34.81666 | 33.55752 | 2857 ft | 230 kts | 199° |
| 2026-05-07 06:00 | 34.80034 | 33.55687 | 3266 ft | 249 kts | 160° |
| 2026-05-07 06:00 | 34.78492 | 33.56766 | 3832 ft | 263 kts | 140° |
| 2026-05-07 06:00 | 34.77136 | 33.58276 | 4702 ft | 267 kts | 134° |
| 2026-05-07 06:01 | 34.75819 | 33.59904 | 5506 ft | 274 kts | 133° |
| 2026-05-07 06:01 | 34.74477 | 33.61549 | 6405 ft | 276 kts | 134° |
| 2026-05-07 06:01 | 34.73053 | 33.63162 | 7234 ft | 281 kts | 137° |
| 2026-05-07 06:01 | 34.71560 | 33.64701 | 8107 ft | 283 kts | 140° |
| 2026-05-07 06:02 | 34.70024 | 33.66236 | 8867 ft | 288 kts | 139° |
| 2026-05-07 06:02 | 34.68483 | 33.67833 | 9561 ft | 295 kts | 138° |
| 2026-05-07 06:02 | 34.66917 | 33.69463 | 10381 ft | 297 kts | 140° |
| 2026-05-07 06:02 | 34.65291 | 33.71105 | 10864 ft | 314 kts | 140° |
| 2026-05-07 06:03 | 34.63533 | 33.72844 | 11099 ft | 337 kts | 143° |
| 2026-05-07 06:03 | 34.61475 | 33.74377 | 11283 ft | 359 kts | 157° |
| 2026-05-07 06:03 | 34.59119 | 33.75437 | 11687 ft | 371 kts | 162° |
| 2026-05-07 06:03 | 34.56642 | 33.76512 | 12323 ft | 377 kts | 162° |
| 2026-05-07 06:04 | 34.54161 | 33.77614 | 12982 ft | 381 kts | 162° |
| 2026-05-07 06:04 | 34.51661 | 33.78738 | 13620 ft | 386 kts | 162° |
| 2026-05-07 06:04 | 34.49120 | 33.79831 | 14238 ft | 389 kts | 166° |
| 2026-05-07 06:04 | 34.46489 | 33.80461 | 14780 ft | 392 kts | 177° |
| 2026-05-07 06:05 | 34.43721 | 33.80692 | 15375 ft | 395 kts | 179° |
| 2026-05-07 06:05 | 34.40963 | 33.80902 | 15989 ft | 399 kts | 180° |
| 2026-05-07 06:05 | 34.38179 | 33.81115 | 16582 ft | 402 kts | 180° |
| 2026-05-07 06:05 | 34.35411 | 33.81329 | 17164 ft | 406 kts | 180° |
| 2026-05-07 06:06 | 34.32581 | 33.81549 | 17740 ft | 409 kts | 180° |
| 2026-05-07 06:06 | 34.29733 | 33.81767 | 18312 ft | 412 kts | 180° |
| 2026-05-07 06:06 | 34.26862 | 33.81986 | 18877 ft | 415 kts | 181° |
| 2026-05-07 06:06 | 34.23968 | 33.82206 | 19422 ft | 418 kts | 180° |
| 2026-05-07 06:07 | 34.21058 | 33.82430 | 19948 ft | 421 kts | 181° |
| 2026-05-07 06:07 | 34.18124 | 33.82657 | 20451 ft | 424 kts | 181° |
| 2026-05-07 06:07 | 34.15164 | 33.82884 | 20947 ft | 427 kts | 181° |
| 2026-05-07 06:07 | 34.12195 | 33.83116 | 21410 ft | 430 kts | 181° |
| 2026-05-07 06:08 | 34.09200 | 33.83351 | 21867 ft | 432 kts | 181° |
| 2026-05-07 06:08 | 34.06188 | 33.83585 | 22317 ft | 435 kts | 181° |
| 2026-05-07 06:08 | 34.03158 | 33.83819 | 22734 ft | 437 kts | 181° |
| 2026-05-07 06:08 | 34.00114 | 33.84053 | 23149 ft | 440 kts | 181° |
| 2026-05-07 06:09 | 33.97058 | 33.84284 | 23528 ft | 442 kts | 181° |
| 2026-05-07 06:09 | 33.93980 | 33.84514 | 23913 ft | 444 kts | 181° |
| 2026-05-07 06:09 | 33.90882 | 33.84746 | 24283 ft | 447 kts | 181° |
| 2026-05-07 06:09 | 33.88781 | 33.84904 | 24526 ft | 448 kts | 181° |
| 2026-05-07 06:10 | 33.85699 | 33.85136 | 24870 ft | 450 kts | 181° |
| 2026-05-07 06:10 | 33.82520 | 33.85377 | 25213 ft | 453 kts | 181° |
| 2026-05-07 06:10 | 33.79370 | 33.85616 | 25548 ft | 455 kts | 181° |
| 2026-05-07 06:10 | 33.76208 | 33.85861 | 25865 ft | 457 kts | 181° |
| 2026-05-07 06:11 | 33.73032 | 33.86109 | 26188 ft | 459 kts | 181° |
| 2026-05-07 06:11 | 33.69830 | 33.86363 | 26482 ft | 461 kts | 181° |
| 2026-05-07 06:11 | 33.66628 | 33.86616 | 26773 ft | 462 kts | 181° |
| 2026-05-07 06:11 | 33.63451 | 33.86866 | 27046 ft | 464 kts | 181° |
| 2026-05-07 06:12 | 33.60218 | 33.87117 | 27302 ft | 466 kts | 181° |
| 2026-05-07 06:12 | 33.56933 | 33.87372 | 27563 ft | 468 kts | 181° |
| 2026-05-07 06:12 | 33.53719 | 33.87621 | 27812 ft | 470 kts | 181° |
| 2026-05-07 06:12 | 33.50407 | 33.87877 | 28057 ft | 471 kts | 181° |
| 2026-05-07 06:13 | 33.47171 | 33.88126 | 28290 ft | 473 kts | 181° |
| 2026-05-07 06:13 | 33.43889 | 33.88379 | 28541 ft | 473 kts | 181° |
| 2026-05-07 06:13 | 33.40565 | 33.88641 | 28866 ft | 472 kts | 181° |
| 2026-05-07 06:13 | 33.37287 | 33.88905 | 29183 ft | 471 kts | 181° |
| 2026-05-07 06:14 | 33.34016 | 33.89166 | 29504 ft | 470 kts | 181° |
| 2026-05-07 06:14 | 33.30757 | 33.89421 | 29813 ft | 469 kts | 181° |
| 2026-05-07 06:14 | 33.27506 | 33.89668 | 30132 ft | 468 kts | 181° |
| 2026-05-07 06:14 | 33.24294 | 33.89910 | 30424 ft | 467 kts | 181° |
| 2026-05-07 06:15 | 33.21058 | 33.90151 | 30736 ft | 466 kts | 181° |
| 2026-05-07 06:15 | 33.17827 | 33.90394 | 31031 ft | 465 kts | 181° |
| 2026-05-07 06:15 | 33.14599 | 33.90636 | 31115 ft | 464 kts | 180° |
| 2026-05-07 06:16 | 33.08150 | 33.91117 | 31128 ft | 464 kts | 180° |
| 2026-05-07 06:16 | 33.01712 | 33.91592 | 31120 ft | 463 kts | 180° |
| 2026-05-07 06:17 | 32.95291 | 33.92061 | 31119 ft | 462 kts | 180° |
| 2026-05-07 06:17 | 32.88877 | 33.92527 | 31118 ft | 462 kts | 180° |
| 2026-05-07 06:18 | 32.82468 | 33.92994 | 31120 ft | 461 kts | 180° |
| 2026-05-07 06:18 | 32.76065 | 33.93464 | 31122 ft | 461 kts | 180° |
| 2026-05-07 06:19 | 32.69658 | 33.93935 | 31124 ft | 461 kts | 180° |
| 2026-05-07 06:19 | 32.63268 | 33.94407 | 31123 ft | 460 kts | 179° |
| 2026-05-07 06:20 | 32.57025 | 33.96250 | 31120 ft | 469 kts | 159° |
| 2026-05-07 06:20 | 32.54132 | 33.98167 | 31120 ft | 473 kts | 148° |
| 2026-05-07 06:20 | 32.51616 | 34.00606 | 31117 ft | 476 kts | 137° |
| 2026-05-07 06:21 | 32.47052 | 34.06295 | 31114 ft | 476 kts | 136° |
| 2026-05-07 06:21 | 32.42202 | 34.11567 | 31108 ft | 471 kts | 148° |
| 2026-05-07 06:22 | 32.36605 | 34.15505 | 31104 ft | 470 kts | 146° |
| 2026-05-07 06:22 | 32.32110 | 34.21164 | 31103 ft | 478 kts | 125° |
| 2026-05-07 06:22 | 32.30488 | 34.24611 | 31100 ft | 480 kts | 118° |
| 2026-05-07 06:23 | 32.27497 | 34.31675 | 31100 ft | 480 kts | 119° |
| 2026-05-07 06:23 | 32.24458 | 34.38705 | 31099 ft | 481 kts | 119° |
| 2026-05-07 06:24 | 32.21425 | 34.45756 | 31103 ft | 481 kts | 119° |
| 2026-05-07 06:24 | 32.18409 | 34.52816 | 31102 ft | 481 kts | 119° |
| 2026-05-07 06:25 | 32.16010 | 34.60196 | 30778 ft | 485 kts | 104° |
| 2026-05-07 06:25 | 32.15311 | 34.64121 | 29524 ft | 492 kts | 102° |
| 2026-05-07 06:25 | 32.14646 | 34.68114 | 28211 ft | 499 kts | 102° |
| 2026-05-07 06:26 | 32.14006 | 34.72097 | 26905 ft | 503 kts | 102° |
| 2026-05-07 06:26 | 32.13364 | 34.76119 | 25655 ft | 507 kts | 102° |
| 2026-05-07 06:26 | 32.12714 | 34.80161 | 24952 ft | 497 kts | 102° |
| 2026-05-07 06:26 | 32.12064 | 34.84143 | 24083 ft | 492 kts | 102° |
| 2026-05-07 06:27 | 32.11409 | 34.88075 | 23263 ft | 487 kts | 102° |
| 2026-05-07 06:27 | 32.10556 | 34.91907 | 22478 ft | 480 kts | 110° |
| 2026-05-07 06:27 | 32.09479 | 34.95619 | 21728 ft | 476 kts | 110° |
| 2026-05-07 06:27 | 32.08420 | 34.99294 | 20997 ft | 472 kts | 110° |
| 2026-05-07 06:28 | 32.07375 | 35.02943 | 20280 ft | 467 kts | 110° |
| 2026-05-07 06:28 | 32.06342 | 35.06560 | 19576 ft | 463 kts | 110° |
| 2026-05-07 06:28 | 32.05320 | 35.10137 | 18914 ft | 458 kts | 110° |
| 2026-05-07 06:28 | 32.04303 | 35.13681 | 18269 ft | 453 kts | 110° |
| 2026-05-07 06:29 | 32.03297 | 35.17177 | 17641 ft | 449 kts | 110° |
| 2026-05-07 06:29 | 32.02297 | 35.20642 | 17062 ft | 444 kts | 110° |
| 2026-05-07 06:29 | 32.01298 | 35.24075 | 16476 ft | 440 kts | 111° |
| 2026-05-07 06:29 | 32.00313 | 35.27457 | 15919 ft | 435 kts | 110° |
| 2026-05-07 06:30 | 31.99341 | 35.30818 | 15359 ft | 430 kts | 110° |
| 2026-05-07 06:30 | 31.98384 | 35.34145 | 14631 ft | 429 kts | 110° |
| 2026-05-07 06:30 | 31.97431 | 35.37465 | 14039 ft | 425 kts | 110° |
| 2026-05-07 06:30 | 31.96489 | 35.40745 | 13452 ft | 420 kts | 110° |
| 2026-05-07 06:31 | 31.95556 | 35.43988 | 12840 ft | 416 kts | 110° |
| 2026-05-07 06:31 | 31.94633 | 35.47190 | 12384 ft | 407 kts | 110° |
| 2026-05-07 06:31 | 31.93801 | 35.50299 | 12267 ft | 391 kts | 104° |
| 2026-05-07 06:31 | 31.93438 | 35.53409 | 12136 ft | 376 kts | 93° |
| 2026-05-07 06:32 | 31.93580 | 35.56422 | 12008 ft | 363 kts | 82° |
| 2026-05-07 06:32 | 31.94007 | 35.59290 | 11883 ft | 350 kts | 81° |
| 2026-05-07 06:32 | 31.94411 | 35.62066 | 11757 ft | 338 kts | 83° |
| 2026-05-07 06:32 | 31.94303 | 35.64747 | 11633 ft | 323 kts | 108° |
| 2026-05-07 06:33 | 31.93298 | 35.67019 | 11396 ft | 310 kts | 133° |
| 2026-05-07 06:33 | 31.91604 | 35.68535 | 10903 ft | 304 kts | 160° |
| 2026-05-07 06:33 | 31.89608 | 35.69141 | 10546 ft | 293 kts | 172° |
| 2026-05-07 06:33 | 31.87612 | 35.69550 | 9877 ft | 290 kts | 172° |
| 2026-05-07 06:34 | 31.85636 | 35.69947 | 9228 ft | 286 kts | 172° |
| 2026-05-07 06:34 | 31.83688 | 35.70332 | 8639 ft | 281 kts | 172° |
| 2026-05-07 06:34 | 31.81780 | 35.70710 | 8104 ft | 275 kts | 171° |
| 2026-05-07 06:34 | 31.79951 | 35.71074 | 7923 ft | 258 kts | 171° |
| 2026-05-07 06:35 | 31.78220 | 35.71419 | 7794 ft | 247 kts | 171° |
| 2026-05-07 06:35 | 31.76563 | 35.71752 | 7658 ft | 236 kts | 171° |
| 2026-05-07 06:35 | 31.74947 | 35.72076 | 7180 ft | 237 kts | 171° |
| 2026-05-07 06:35 | 31.73325 | 35.72400 | 6627 ft | 235 kts | 170° |
| 2026-05-07 06:36 | 31.71746 | 35.72720 | 6427 ft | 226 kts | 170° |
| 2026-05-07 06:36 | 31.70283 | 35.73387 | 6372 ft | 229 kts | 138° |
| 2026-05-07 06:36 | 31.69480 | 35.74973 | 6198 ft | 232 kts | 100° |
| 2026-05-07 06:36 | 31.69636 | 35.76858 | 5770 ft | 235 kts | 74° |
| 2026-05-07 06:37 | 31.70014 | 35.78724 | 5413 ft | 235 kts | 79° |
| 2026-05-07 06:37 | 31.70300 | 35.80612 | 5119 ft | 233 kts | 81° |
| 2026-05-07 06:37 | 31.70570 | 35.82485 | 4807 ft | 232 kts | 81° |
| 2026-05-07 06:37 | 31.70840 | 35.84339 | 4504 ft | 230 kts | 81° |
| 2026-05-07 06:38 | 31.71103 | 35.86146 | 4202 ft | 219 kts | 81° |
| 2026-05-07 06:38 | 31.71354 | 35.87860 | 3924 ft | 207 kts | 81° |
| 2026-05-07 06:38 | 31.71584 | 35.89454 | 3679 ft | 192 kts | 81° |
| 2026-05-07 06:38 | 31.71801 | 35.90942 | 3405 ft | 177 kts | 81° |
| 2026-05-07 06:39 | 31.71998 | 35.92294 | 3191 ft | 160 kts | 81° |
| 2026-05-07 06:39 | 31.72178 | 35.93524 | 2983 ft | 148 kts | 81° |
| 2026-05-07 06:39 | 31.72356 | 35.94702 | 2771 ft | 145 kts | 80° |
| 2026-05-07 06:39 | 31.72526 | 35.95858 | 2603 ft | 142 kts | 81° |
| 2026-05-07 06:40 | 31.72691 | 35.97006 | 2491 ft | 143 kts | 81° |
| 2026-05-07 06:40 | 31.72852 | 35.98128 | 2407 ft | 129 kts | 80° |
| 2026-05-07 06:40 | 31.72973 | 35.98983 | 2410 ft | 75 kts | 80° |
| 2026-05-07 06:40 | 31.73005 | 35.99205 | 2409 ft | 16 kts | 81° |
| 2026-05-07 06:41 | 31.73007 | 35.99345 | 2409 ft | 18 kts | 101° |
| 2026-05-07 06:41 | 31.72966 | 35.99490 | 2408 ft | 20 kts | 110° |
| 2026-05-07 06:41 | 31.72920 | 35.99632 | 2408 ft | 12 kts | 110° |
| 2026-05-07 06:41 | 31.72894 | 35.99715 | 2408 ft | 6 kts | 110° |
| 2026-05-07 06:42 | 31.72869 | 35.99750 | 2410 ft | 6 kts | 147° |
| 2026-05-07 06:42 | 31.72832 | 35.99754 | 2409 ft | 6 kts | 194° |
| 2026-05-07 06:42 | 31.72804 | 35.99720 | 2409 ft | 5 kts | 243° |
| 2026-05-07 06:42 | 31.72790 | 35.99686 | 2408 ft | 4 kts | 248° |
| 2026-05-07 06:43 | 31.72788 | 35.99678 | 2409 ft | 3 kts | 254° |
| 2026-05-07 06:46 | 31.72788 | 35.99677 | 2409 ft | 3 kts | 254° |
| 2026-05-07 06:47 | 31.72784 | 35.99655 | 2409 ft | 2 kts | 260° |
| 2026-05-07 06:47 | 31.72783 | 35.99647 | 2409 ft | 1 kts | 262° |